Time;durP1;ratioP1;P1;durP2;ratioP2;P2;SDS_P1;SDS_P2;PMS_P1;PMS_P2;Temp;Humidity;BMP_temperature;BMP_pressure;BME280_temperature;BME280_humidity;BME280_pressure;Samples;Min_cycle;Max_cycle;Signal;HPM_P1;HPM_P2
2022/09/10 00:01:37;;;;;;;7.05;1.83;;;18.00;96.00;;;;;;5073898;28;20016;-73
2022/09/10 00:04:06;;;;;;;5.80;1.90;;;18.00;96.00;;;;;;5074468;28;20032;-73
2022/09/10 00:06:34;;;;;;;4.90;1.80;;;18.00;95.90;;;;;;5073865;28;20480;-73
2022/09/10 00:09:00;;;;;;;3.70;1.52;;;18.00;95.90;;;;;;5074118;28;20033;-73
2022/09/10 00:11:29;;;;;;;7.25;1.92;;;18.00;95.90;;;;;;5074011;28;20426;-73
2022/09/10 00:13:56;;;;;;;8.52;2.05;;;18.00;96.20;;;;;;5073761;28;20025;-73
2022/09/10 00:16:22;;;;;;;7.75;2.42;;;18.00;96.00;;;;;;5073921;28;20035;-73
2022/09/10 00:18:48;;;;;;;6.45;2.28;;;18.00;96.00;;;;;;5073694;28;20025;-73
2022/09/10 00:21:17;;;;;;;7.40;2.03;;;18.00;96.00;;;;;;5073526;28;20017;-73
2022/09/10 00:23:46;;;;;;;6.80;2.15;;;17.90;96.10;;;;;;5073497;28;20028;-73
2022/09/10 00:26:22;;;;;;;8.75;2.20;;;17.90;96.10;;;;;;5073392;28;20024;-73
2022/09/10 00:28:50;;;;;;;7.93;2.13;;;17.90;96.10;;;;;;5073069;28;20482;-73
2022/09/10 00:31:17;;;;;;;5.38;1.90;;;17.90;96.10;;;;;;5073737;28;20486;-73
2022/09/10 00:33:43;;;;;;;7.40;2.53;;;17.90;96.10;;;;;;5073461;28;20035;-73
2022/09/10 00:36:27;;;;;;;7.05;2.47;;;18.00;96.20;;;;;;5073299;28;20032;-73
2022/09/10 00:38:54;;;;;;;7.93;3.20;;;17.90;96.10;;;;;;5073353;28;20434;-73
2022/09/10 00:41:22;;;;;;;9.38;3.03;;;17.90;96.00;;;;;;5073326;28;20021;-73
2022/09/10 00:43:59;;;;;;;8.73;3.13;;;17.90;96.10;;;;;;5073210;28;20443;-73
2022/09/10 00:46:27;;;;;;;7.93;3.15;;;17.90;96.20;;;;;;5073419;28;20024;-73
2022/09/10 00:48:55;;;;;;;7.65;3.50;;;17.90;96.20;;;;;;5073093;28;20028;-72
2022/09/10 00:51:22;;;;;;;10.50;3.70;;;17.90;96.40;;;;;;5073048;28;20020;-72
2022/09/10 00:53:49;;;;;;;10.82;3.83;;;17.90;96.20;;;;;;5073390;28;20036;-72
2022/09/10 00:56:15;;;;;;;9.20;3.72;;;17.90;96.20;;;;;;5073455;28;20037;-72
2022/09/10 00:58:42;;;;;;;6.60;3.42;;;17.90;96.20;;;;;;5073328;28;20055;-72
2022/09/10 01:01:08;;;;;;;7.28;3.47;;;17.90;96.20;;;;;;5073182;28;20112;-73
2022/09/10 01:03:34;;;;;;;9.45;3.63;;;18.00;96.20;;;;;;5072977;28;20052;-73
2022/09/10 01:06:00;;;;;;;10.15;4.50;;;18.00;96.30;;;;;;5073277;28;20029;-73
2022/09/10 01:08:28;;;;;;;8.52;5.07;;;18.00;96.30;;;;;;5073313;28;20082;-73
2022/09/10 01:11:21;;;;;;;10.75;5.10;;;18.00;96.20;;;;;;5073054;28;20071;-73
2022/09/10 01:14:01;;;;;;;9.15;5.20;;;18.00;96.20;;;;;;5073194;28;20039;-73
2022/09/10 01:16:27;;;;;;;9.75;5.05;;;18.00;96.10;;;;;;5072994;28;20488;-73
2022/09/10 01:19:20;;;;;;;10.02;4.15;;;18.00;96.20;;;;;;5073144;28;20033;-73
2022/09/10 01:22:32;;;;;;;12.05;6.63;;;18.00;96.20;;;;;;5073084;28;20016;-73
2022/09/10 01:25:14;;;;;;;11.82;6.30;;;18.00;96.20;;;;;;5030543;28;20045;-73
2022/09/10 01:27:49;;;;;;;10.80;6.35;;;18.00;96.10;;;;;;5030775;28;20527;-73
2022/09/10 01:30:44;;;;;;;13.02;6.10;;;18.00;96.10;;;;;;5057606;28;20102;-73
2022/09/10 01:33:14;;;;;;;12.30;6.68;;;18.00;96.10;;;;;;5069734;28;20040;-73
2022/09/10 01:35:49;;;;;;;12.20;6.85;;;18.00;96.20;;;;;;5073007;28;20033;-73
2022/09/10 01:38:24;;;;;;;13.35;7.80;;;18.00;96.20;;;;;;5072885;28;20029;-73
2022/09/10 01:40:52;;;;;;;15.10;6.75;;;18.00;96.30;;;;;;5073962;28;20028;-73
2022/09/10 01:43:18;;;;;;;12.85;6.97;;;18.10;96.30;;;;;;5076540;28;20104;-73
2022/09/10 01:46:05;;;;;;;15.45;7.97;;;18.00;96.30;;;;;;5076769;28;20060;-73
2022/09/10 01:48:42;;;;;;;14.40;9.35;;;18.10;96.50;;;;;;5076737;28;20028;-73
2022/09/10 01:51:18;;;;;;;10.93;6.47;;;18.10;96.40;;;;;;5076764;28;20027;-73
2022/09/10 01:54:22;;;;;;;12.05;8.68;;;18.00;96.40;;;;;;5076568;28;20024;-72
2022/09/10 01:57:02;;;;;;;12.95;8.07;;;18.00;96.40;;;;;;5054806;28;20488;-72
2022/09/10 01:59:49;;;;;;;15.32;8.93;;;18.10;96.40;;;;;;5076407;28;20043;-73
2022/09/10 02:02:27;;;;;;;17.95;10.10;;;18.00;96.30;;;;;;5076254;28;20036;-73
2022/09/10 02:04:54;;;;;;;13.88;9.88;;;18.00;96.40;;;;;;5076476;28;20033;-73
2022/09/10 02:07:22;;;;;;;15.57;9.50;;;18.00;96.50;;;;;;5076294;28;20032;-73
2022/09/10 02:09:49;;;;;;;13.38;8.65;;;18.00;96.60;;;;;;5076111;28;20477;-73
2022/09/10 02:12:20;;;;;;;13.82;10.02;;;18.00;96.60;;;;;;5076157;28;20070;-73
2022/09/10 02:14:52;;;;;;;13.35;7.80;;;18.00;96.60;;;;;;5076169;28;20423;-73
2022/09/10 02:17:19;;;;;;;17.80;9.27;;;18.00;96.70;;;;;;5076253;28;20107;-73
2022/09/10 02:19:46;;;;;;;11.95;8.05;;;18.00;96.80;;;;;;5076053;28;20028;-73
2022/09/10 02:22:14;;;;;;;13.77;8.82;;;18.00;96.70;;;;;;5075955;28;20081;-73
2022/09/10 02:24:43;;;;;;;19.05;11.32;;;18.00;96.80;;;;;;5075856;28;20543;-73
2022/09/10 02:27:10;;;;;;;24.77;10.70;;;18.00;97.00;;;;;;5075853;28;20060;-73
2022/09/10 02:29:37;;;;;;;17.27;9.80;;;17.80;97.10;;;;;;5075795;28;20053;-73
2022/09/10 02:32:05;;;;;;;16.02;9.02;;;17.90;97.10;;;;;;5075715;28;20487;-73
2022/09/10 02:34:31;;;;;;;16.67;9.82;;;17.90;97.10;;;;;;5075764;28;20045;-72
2022/09/10 02:36:56;;;;;;;15.93;11.27;;;17.90;97.10;;;;;;5075633;28;20021;-73
2022/09/10 02:39:22;;;;;;;10.98;7.07;;;17.90;97.20;;;;;;5075751;28;20043;-73
2022/09/10 02:41:48;;;;;;;14.25;9.55;;;17.80;97.20;;;;;;5075804;28;20033;-73
2022/09/10 02:44:13;;;;;;;17.15;8.30;;;17.90;97.20;;;;;;5075519;28;20371;-73
2022/09/10 02:46:39;;;;;;;12.82;9.45;;;17.90;97.20;;;;;;5075681;28;20027;-73
2022/09/10 02:49:05;;;;;;;16.48;9.82;;;17.90;97.10;;;;;;5075763;28;20078;-73
2022/09/10 02:51:30;;;;;;;15.57;8.82;;;17.90;97.00;;;;;;5074806;28;20498;-73
2022/09/10 02:53:56;;;;;;;17.02;8.88;;;17.90;97.00;;;;;;5074761;28;20456;-73
2022/09/10 02:56:22;;;;;;;15.40;8.57;;;17.90;97.10;;;;;;5075201;28;20032;-73
2022/09/10 02:58:49;;;;;;;15.85;9.48;;;17.90;97.10;;;;;;5075418;28;20025;-73
2022/09/10 03:01:18;;;;;;;11.77;8.68;;;17.90;97.10;;;;;;5075159;28;20024;-73
2022/09/10 03:03:49;;;;;;;13.52;7.53;;;17.90;97.10;;;;;;5075062;28;20310;-73
2022/09/10 03:06:14;;;;;;;15.23;8.98;;;17.90;97.10;;;;;;5075359;28;20025;-73
2022/09/10 03:08:40;;;;;;;14.63;8.32;;;17.90;97.10;;;;;;5075334;28;20031;-73
2022/09/10 03:11:07;;;;;;;10.32;6.93;;;17.90;97.30;;;;;;5075010;28;20460;-73
2022/09/10 03:13:33;;;;;;;12.77;8.57;;;17.90;97.30;;;;;;5074755;28;20163;-73
2022/09/10 03:15:59;;;;;;;10.30;8.07;;;17.90;97.40;;;;;;5075026;28;20028;-73
2022/09/10 03:18:26;;;;;;;15.30;8.25;;;17.90;97.30;;;;;;5074920;28;20028;-73
2022/09/10 03:20:52;;;;;;;10.88;8.73;;;17.90;97.30;;;;;;5075073;28;20040;-73
2022/09/10 03:23:18;;;;;;;12.90;8.10;;;18.00;97.30;;;;;;5074486;28;20021;-73
2022/09/10 03:25:43;;;;;;;11.93;8.60;;;18.00;97.30;;;;;;5074652;28;20090;-73
2022/09/10 03:28:09;;;;;;;9.65;7.78;;;18.00;97.30;;;;;;5074452;28;20076;-72
2022/09/10 03:30:36;;;;;;;11.25;9.70;;;18.00;97.30;;;;;;5075018;28;20032;-73
2022/09/10 03:33:02;;;;;;;12.73;8.48;;;18.00;97.30;;;;;;5074642;28;20028;-73
2022/09/10 03:35:27;;;;;;;10.15;8.38;;;18.00;97.40;;;;;;5074348;28;20039;-73
2022/09/10 03:37:53;;;;;;;17.33;10.50;;;18.00;97.30;;;;;;5074614;28;20048;-73
2022/09/10 03:40:18;;;;;;;10.82;9.68;;;18.10;97.40;;;;;;5074671;28;20016;-73
2022/09/10 03:42:44;;;;;;;11.43;8.75;;;18.00;97.40;;;;;;5074629;28;20100;-73
2022/09/10 03:45:10;;;;;;;14.82;10.40;;;18.00;97.50;;;;;;5074359;28;20029;-73
2022/09/10 03:47:37;;;;;;;13.27;10.57;;;18.00;97.50;;;;;;5074573;28;20487;-73
2022/09/10 03:50:03;;;;;;;16.95;9.80;;;18.00;97.50;;;;;;5074222;28;20032;-73
2022/09/10 03:52:29;;;;;;;10.40;7.35;;;18.00;97.60;;;;;;5074133;28;20150;-73
2022/09/10 03:54:55;;;;;;;12.18;9.02;;;17.90;97.60;;;;;;5073991;28;20127;-73
2022/09/10 03:57:21;;;;;;;13.77;9.13;;;17.90;97.60;;;;;;5074405;28;20025;-73
2022/09/10 03:59:47;;;;;;;13.88;9.95;;;17.90;97.60;;;;;;5074079;28;20555;-73
2022/09/10 04:02:13;;;;;;;13.95;9.93;;;17.90;97.60;;;;;;5074127;28;20097;-73
2022/09/10 04:04:40;;;;;;;13.20;8.63;;;18.00;97.60;;;;;;5073609;28;20103;-73
2022/09/10 04:07:06;;;;;;;18.45;8.82;;;18.00;97.60;;;;;;5073875;28;20017;-73
2022/09/10 04:09:32;;;;;;;12.52;9.50;;;18.00;97.70;;;;;;5073847;28;20033;-73
2022/09/10 04:11:58;;;;;;;15.70;8.98;;;18.00;97.80;;;;;;5073663;28;20040;-73
2022/09/10 04:14:25;;;;;;;10.63;8.57;;;17.90;97.80;;;;;;5073680;28;20454;-73
2022/09/10 04:16:51;;;;;;;8.57;7.15;;;18.00;97.80;;;;;;5073596;28;20464;-73
2022/09/10 04:19:16;;;;;;;12.18;8.07;;;18.00;97.70;;;;;;5073777;28;20032;-73
2022/09/10 04:21:42;;;;;;;12.30;8.73;;;18.00;97.70;;;;;;5073316;28;20111;-73
2022/09/10 04:24:11;;;;;;;14.55;8.20;;;18.00;97.70;;;;;;5073629;28;20075;-73
2022/09/10 04:26:36;;;;;;;15.32;8.50;;;18.00;97.70;;;;;;5073891;28;20029;-73
2022/09/10 04:29:03;;;;;;;11.23;9.00;;;18.00;97.70;;;;;;5073534;28;20114;-73
2022/09/10 04:31:28;;;;;;;12.07;9.32;;;18.00;97.70;;;;;;5073235;28;20040;-73
2022/09/10 04:33:54;;;;;;;15.27;9.95;;;18.00;97.80;;;;;;5073494;28;20028;-73
2022/09/10 04:36:19;;;;;;;9.68;7.75;;;18.00;97.90;;;;;;5073543;28;20048;-73
2022/09/10 04:38:45;;;;;;;10.20;7.72;;;18.00;97.90;;;;;;5073409;28;20016;-73
2022/09/10 04:41:14;;;;;;;11.95;7.68;;;18.00;97.90;;;;;;5073367;28;20107;-73
2022/09/10 04:43:40;;;;;;;10.57;7.90;;;18.10;97.90;;;;;;5073373;28;20032;-73
2022/09/10 04:46:06;;;;;;;13.15;8.65;;;18.10;97.90;;;;;;5073440;28;20024;-73
2022/09/10 04:48:32;;;;;;;13.63;7.80;;;18.10;97.90;;;;;;5073325;28;20021;-73
2022/09/10 04:50:58;;;;;;;11.60;9.05;;;18.10;98.00;;;;;;5073274;28;20027;-73
2022/09/10 04:53:26;;;;;;;10.60;7.97;;;18.10;98.00;;;;;;5073345;28;20024;-73
2022/09/10 04:55:53;;;;;;;11.35;8.82;;;18.00;98.00;;;;;;5073127;28;20135;-73
2022/09/10 04:58:19;;;;;;;10.80;7.60;;;18.00;98.10;;;;;;5073264;28;20103;-73
2022/09/10 05:00:44;;;;;;;10.85;7.90;;;18.00;98.10;;;;;;5073273;28;20104;-73
2022/09/10 05:03:12;;;;;;;12.70;7.97;;;18.00;98.10;;;;;;5073265;28;20070;-73
2022/09/10 05:05:38;;;;;;;11.05;8.50;;;18.00;98.10;;;;;;5073307;28;20100;-73
2022/09/10 05:08:06;;;;;;;11.45;7.65;;;18.00;98.10;;;;;;5073111;28;20502;-73
2022/09/10 05:10:32;;;;;;;14.70;8.38;;;18.10;98.10;;;;;;5073128;28;20028;-73
2022/09/10 05:12:58;;;;;;;9.13;7.70;;;18.00;98.10;;;;;;5073153;28;20476;-73
2022/09/10 05:15:24;;;;;;;9.13;7.57;;;18.00;98.20;;;;;;5073506;28;20450;-73
2022/09/10 05:17:50;;;;;;;10.23;7.88;;;18.00;98.20;;;;;;5077400;28;20021;-73
2022/09/10 05:20:16;;;;;;;15.10;7.93;;;18.00;98.30;;;;;;5077107;28;20024;-73
2022/09/10 05:22:41;;;;;;;9.98;7.80;;;18.10;98.30;;;;;;5077066;28;20032;-72
2022/09/10 05:25:08;;;;;;;7.90;6.40;;;18.00;98.30;;;;;;5077243;28;20025;-72
2022/09/10 05:27:33;;;;;;;11.30;6.53;;;18.00;98.30;;;;;;5076788;28;20063;-72
2022/09/10 05:30:00;;;;;;;14.40;7.80;;;18.10;98.20;;;;;;5076755;28;20032;-72
2022/09/10 05:32:27;;;;;;;10.10;7.32;;;18.10;98.20;;;;;;5076999;28;20036;-72
2022/09/10 05:34:53;;;;;;;9.65;7.00;;;18.10;98.20;;;;;;5076873;28;20040;-72
2022/09/10 05:37:18;;;;;;;11.75;8.55;;;18.10;98.20;;;;;;5076680;28;20016;-72
2022/09/10 05:39:47;;;;;;;9.75;7.28;;;18.10;98.30;;;;;;5076829;28;20036;-72
2022/09/10 05:42:13;;;;;;;6.93;5.70;;;18.10;98.30;;;;;;5076625;28;20431;-72
2022/09/10 05:44:40;;;;;;;9.38;6.82;;;18.10;98.30;;;;;;5076807;28;20024;-72
2022/09/10 05:47:06;;;;;;;9.80;6.68;;;18.10;98.30;;;;;;5076229;28;20099;-72
2022/09/10 05:49:32;;;;;;;9.70;7.13;;;18.10;98.20;;;;;;5076425;28;20519;-72
2022/09/10 05:51:57;;;;;;;9.77;6.55;;;18.10;98.20;;;;;;5076503;28;20021;-72
2022/09/10 05:54:23;;;;;;;11.90;7.30;;;18.20;98.20;;;;;;5076293;28;20472;-72
2022/09/10 05:56:49;;;;;;;10.45;7.68;;;18.20;98.20;;;;;;5076227;28;20074;-72
2022/09/10 05:59:14;;;;;;;11.13;7.32;;;18.20;98.30;;;;;;5076247;28;20029;-72
2022/09/10 06:01:40;;;;;;;12.75;7.30;;;18.20;98.60;;;;;;5075866;28;20449;-72
2022/09/10 06:04:05;;;;;;;11.65;7.32;;;18.20;98.40;;;;;;5076358;28;20025;-72
2022/09/10 06:06:31;;;;;;;9.20;7.63;;;18.20;98.40;;;;;;5076119;28;20123;-71
2022/09/10 06:08:57;;;;;;;9.43;7.57;;;18.10;98.50;;;;;;5076415;28;20035;-72
2022/09/10 06:11:23;;;;;;;9.57;7.20;;;18.10;98.50;;;;;;5076155;28;20067;-71
2022/09/10 06:13:49;;;;;;;10.43;8.60;;;18.10;98.60;;;;;;5076052;28;20079;-72
2022/09/10 06:16:16;;;;;;;12.05;7.30;;;18.00;98.70;;;;;;5075982;28;20490;-71
2022/09/10 06:18:42;;;;;;;8.52;7.28;;;18.00;98.90;;;;;;5076322;28;20052;-72
2022/09/10 06:21:12;;;;;;;8.55;6.10;;;17.90;98.90;;;;;;5076154;28;20381;-72
2022/09/10 06:23:38;;;;;;;8.00;5.70;;;17.90;98.90;;;;;;5075878;28;20468;-72
2022/09/10 06:26:07;;;;;;;8.23;6.63;;;18.00;98.80;;;;;;5075822;28;20031;-72
2022/09/10 06:28:33;;;;;;;7.82;4.53;;;17.90;98.80;;;;;;5075336;28;20514;-72
2022/09/10 06:30:59;;;;;;;8.68;6.70;;;17.90;98.90;;;;;;5076070;28;20056;-72
2022/09/10 06:33:25;;;;;;;7.93;6.32;;;17.90;98.90;;;;;;5076048;28;20518;-72
2022/09/10 06:35:55;;;;;;;9.45;6.22;;;17.90;98.80;;;;;;5075920;28;20028;-72
2022/09/10 06:38:21;;;;;;;9.00;6.20;;;17.90;98.90;;;;;;5075816;28;20017;-72
2022/09/10 06:40:53;;;;;;;8.68;6.15;;;17.80;99.00;;;;;;5075668;28;20025;-72
2022/09/10 06:43:19;;;;;;;9.23;6.57;;;17.70;99.20;;;;;;5075542;28;20105;-72
2022/09/10 06:45:44;;;;;;;8.10;6.07;;;17.70;99.40;;;;;;5075481;28;20020;-72
2022/09/10 06:48:10;;;;;;;6.78;6.00;;;17.60;99.40;;;;;;5075835;28;20464;-72
2022/09/10 06:50:36;;;;;;;7.20;5.53;;;17.60;99.50;;;;;;5075564;28;20024;-72
2022/09/10 06:53:02;;;;;;;2.22;1.80;;;17.60;99.80;;;;;;5075406;28;20021;-72
2022/09/10 06:55:27;;;;;;;3.85;2.92;;;17.60;99.60;;;;;;5075564;28;20036;-72
2022/09/10 06:57:53;;;;;;;3.10;2.80;;;17.60;99.60;;;;;;5075514;28;20467;-72
2022/09/10 07:00:19;;;;;;;4.43;4.00;;;17.60;99.50;;;;;;5075125;28;20435;-72
2022/09/10 07:02:44;;;;;;;4.45;3.65;;;17.70;99.50;;;;;;5075420;28;20082;-72
2022/09/10 07:05:10;;;;;;;5.72;4.32;;;17.70;99.40;;;;;;5075291;28;20468;-72
2022/09/10 07:07:36;;;;;;;6.07;4.88;;;17.70;99.30;;;;;;5075225;28;20048;-72
2022/09/10 07:10:01;;;;;;;12.73;6.38;;;17.70;99.30;;;;;;5075098;28;20056;-72
2022/09/10 07:12:27;;;;;;;11.18;8.32;;;17.80;99.40;;;;;;5075019;28;20020;-72
2022/09/10 07:14:52;;;;;;;14.63;10.43;;;17.80;99.50;;;;;;5075133;28;20476;-72
2022/09/10 07:17:19;;;;;;;19.73;9.95;;;17.80;99.50;;;;;;5075115;28;20013;-72
2022/09/10 07:19:45;;;;;;;13.48;9.65;;;17.70;99.70;;;;;;5074821;28;20028;-72
2022/09/10 07:22:11;;;;;;;14.10;10.73;;;17.70;99.70;;;;;;5074710;28;20025;-72
2022/09/10 07:24:36;;;;;;;11.75;9.45;;;17.70;99.70;;;;;;5074725;28;20032;-72
2022/09/10 07:27:02;;;;;;;15.25;11.23;;;17.80;99.80;;;;;;5074682;28;20041;-72
2022/09/10 07:29:30;;;;;;;16.38;11.65;;;17.80;99.80;;;;;;5074725;28;20396;-72
2022/09/10 07:31:55;;;;;;;15.20;11.95;;;17.80;99.80;;;;;;5074581;28;20025;-72
2022/09/10 07:34:22;;;;;;;18.30;10.45;;;17.70;99.80;;;;;;5074608;28;20093;-72
2022/09/10 07:36:47;;;;;;;14.05;10.73;;;17.70;99.90;;;;;;5074595;28;20433;-72
2022/09/10 07:39:13;;;;;;;17.58;11.35;;;17.80;99.90;;;;;;5074018;28;20052;-72
2022/09/10 07:41:39;;;;;;;17.08;12.00;;;17.80;99.90;;;;;;5074448;28;20017;-73
2022/09/10 07:44:04;;;;;;;15.63;12.05;;;17.80;99.90;;;;;;5074377;28;20460;-72
2022/09/10 07:46:30;;;;;;;17.70;12.68;;;17.80;99.90;;;;;;5074065;28;20078;-72
2022/09/10 07:48:58;;;;;;;14.73;11.75;;;17.80;99.90;;;;;;5074643;28;20021;-72
2022/09/10 07:51:26;;;;;;;16.17;11.98;;;17.80;99.90;;;;;;5073995;28;20446;-72
2022/09/10 07:53:56;;;;;;;15.23;11.70;;;17.80;99.90;;;;;;5074094;28;20028;-73
2022/09/10 07:56:22;;;;;;;16.42;11.52;;;17.80;99.90;;;;;;5074023;28;20592;-72
2022/09/10 07:58:49;;;;;;;13.75;10.93;;;17.90;99.90;;;;;;5074331;28;20028;-72
2022/09/10 08:01:14;;;;;;;16.48;10.60;;;17.90;99.90;;;;;;5074054;28;20074;-72
2022/09/10 08:03:40;;;;;;;14.07;8.57;;;18.00;99.90;;;;;;5074179;28;20107;-72
2022/09/10 08:06:07;;;;;;;7.78;5.93;;;18.00;99.90;;;;;;5073976;28;20025;-72
2022/09/10 08:08:35;;;;;;;15.40;9.13;;;18.00;99.90;;;;;;5073577;28;20036;-72
2022/09/10 08:11:03;;;;;;;12.05;10.38;;;18.10;99.90;;;;;;5073877;28;20020;-72
2022/09/10 08:13:29;;;;;;;9.57;7.47;;;18.20;99.90;;;;;;5073677;28;20025;-72
2022/09/10 08:15:56;;;;;;;10.60;9.32;;;18.20;99.80;;;;;;5073986;28;20035;-72
2022/09/10 08:18:22;;;;;;;13.68;9.88;;;18.20;99.80;;;;;;5073688;28;20046;-72
2022/09/10 08:20:53;;;;;;;16.27;11.57;;;18.20;99.80;;;;;;5073624;28;20468;-72
2022/09/10 08:23:19;;;;;;;11.43;9.68;;;18.20;99.90;;;;;;5073620;28;20028;-72
2022/09/10 08:25:50;;;;;;;11.27;9.43;;;18.20;99.90;;;;;;5073834;28;20078;-72
2022/09/10 08:28:18;;;;;;;9.03;8.10;;;18.30;99.90;;;;;;5073445;28;20102;-73
2022/09/10 08:31:07;;;;;;;9.93;8.63;;;18.30;99.80;;;;;;5073634;28;20044;-73
2022/09/10 08:33:35;;;;;;;10.68;8.80;;;18.40;99.80;;;;;;5073147;28;20028;-73
2022/09/10 08:36:02;;;;;;;13.23;10.35;;;18.40;99.90;;;;;;5073348;28;20041;-71
2022/09/10 08:38:34;;;;;;;11.27;9.85;;;18.40;99.90;;;;;;5073636;28;20031;-73
2022/09/10 08:41:01;;;;;;;10.73;9.43;;;18.50;99.90;;;;;;5073700;28;20027;-73
2022/09/10 08:43:50;;;;;;;11.55;10.35;;;18.50;99.90;;;;;;5073195;28;20033;-72
2022/09/10 08:46:25;;;;;;;10.90;9.45;;;18.60;99.90;;;;;;5073238;28;20043;-72
2022/09/10 08:49:15;;;;;;;9.95;8.93;;;18.60;99.90;;;;;;5073113;28;20476;-72
2022/09/10 08:52:03;;;;;;;10.43;9.10;;;18.50;99.90;;;;;;5073163;28;20032;-72
2022/09/10 08:54:42;;;;;;;8.95;8.13;;;18.70;99.90;;;;;;5072526;28;20033;-72
2022/09/10 08:57:21;;;;;;;10.90;9.80;;;18.80;99.90;;;;;;5073053;28;20064;-72
2022/09/10 08:59:51;;;;;;;11.63;10.52;;;18.90;99.90;;;;;;5073301;28;20033;-72
2022/09/10 09:02:23;;;;;;;10.93;9.85;;;19.00;99.90;;;;;;5073357;28;20096;-72
2022/09/10 09:04:57;;;;;;;9.25;8.40;;;19.10;99.90;;;;;;5073082;28;20479;-73
2022/09/10 09:07:25;;;;;;;9.80;8.30;;;19.20;99.90;;;;;;5073307;28;20047;-73
2022/09/10 09:09:51;;;;;;;9.25;8.48;;;19.20;99.90;;;;;;5073097;28;20053;-72
2022/09/10 09:12:45;;;;;;;6.68;6.03;;;19.30;99.70;;;;;;5073292;28;20055;-73
2022/09/10 09:15:51;;;;;;;9.65;8.68;;;19.30;99.60;;;;;;5073132;28;20044;-73
2022/09/10 09:18:45;;;;;;;10.52;9.52;;;19.30;99.30;;;;;;5073281;28;20349;-72
2022/09/10 09:21:40;;;;;;;11.98;10.27;;;19.40;99.20;;;;;;5069641;28;20052;-72
2022/09/10 09:24:21;;;;;;;12.05;10.90;;;19.40;99.20;;;;;;5073259;28;20021;-72
2022/09/10 09:26:48;;;;;;;11.45;10.35;;;19.40;99.40;;;;;;5072917;28;20024;-72
2022/09/10 09:29:26;;;;;;;10.57;9.60;;;19.30;99.40;;;;;;5073013;28;20049;-72
2022/09/10 09:31:57;;;;;;;11.13;9.73;;;19.30;99.40;;;;;;5072729;28;20118;-72
2022/09/10 09:34:37;;;;;;;11.00;10.00;;;19.30;99.30;;;;;;5072723;28;20056;-72
2022/09/10 09:37:14;;;;;;;12.52;10.40;;;19.30;99.10;;;;;;5073032;28;20079;-72
2022/09/10 09:40:01;;;;;;;11.95;10.75;;;19.30;99.10;;;;;;5072545;28;20423;-72
2022/09/10 09:42:43;;;;;;;11.82;10.73;;;19.30;99.10;;;;;;5072850;28;20039;-72
2022/09/10 09:45:36;;;;;;;12.82;10.38;;;19.20;99.30;;;;;;5072646;28;20480;-72
2022/09/10 09:48:08;;;;;;;9.52;8.63;;;19.00;99.50;;;;;;5072968;28;20032;-72
2022/09/10 09:50:40;;;;;;;9.23;8.30;;;18.90;99.60;;;;;;5072951;28;20104;-72
2022/09/10 09:53:06;;;;;;;8.90;8.00;;;19.00;99.60;;;;;;5072633;28;20031;-72
2022/09/10 09:55:37;;;;;;;6.82;6.22;;;18.90;99.70;;;;;;5072602;28;20033;-72
2022/09/10 09:58:25;;;;;;;9.50;8.00;;;18.90;99.70;;;;;;5072848;28;20119;-72
2022/09/10 10:01:04;;;;;;;8.20;7.40;;;18.90;99.70;;;;;;5072246;28;20021;-73
2022/09/10 10:03:31;;;;;;;7.75;7.05;;;18.80;99.80;;;;;;5076122;28;20062;-72
2022/09/10 10:06:05;;;;;;;8.35;7.38;;;18.70;99.90;;;;;;5076447;28;20032;-72
2022/09/10 10:08:39;;;;;;;7.32;6.63;;;18.70;99.90;;;;;;5076097;28;20105;-72
2022/09/10 10:11:06;;;;;;;5.75;5.25;;;18.60;99.90;;;;;;5076119;28;20099;-72
2022/09/10 10:13:38;;;;;;;3.70;3.40;;;18.50;99.90;;;;;;5076080;28;20112;-72
2022/09/10 10:16:31;;;;;;;4.85;4.03;;;18.40;99.90;;;;;;5076176;28;20040;-72
2022/09/10 10:18:56;;;;;;;4.60;4.07;;;18.40;99.90;;;;;;5076121;28;20035;-72
2022/09/10 10:21:33;;;;;;;4.43;3.70;;;18.30;99.90;;;;;;5075846;28;20488;-72
2022/09/10 10:23:59;;;;;;;4.05;3.70;;;18.20;99.90;;;;;;5075951;28;20032;-72
2022/09/10 10:26:34;;;;;;;5.63;4.40;;;18.20;99.90;;;;;;5075955;28;20021;-72
2022/09/10 10:29:15;;;;;;;3.50;3.20;;;18.20;99.90;;;;;;5075594;28;20117;-72
2022/09/10 10:31:43;;;;;;;4.70;4.30;;;18.20;99.90;;;;;;5075881;28;20025;-72
2022/09/10 10:34:27;;;;;;;5.25;4.20;;;18.30;99.90;;;;;;5075487;28;20064;-72
2022/09/10 10:37:07;;;;;;;5.38;4.93;;;18.40;99.90;;;;;;5075881;28;20039;-72
2022/09/10 10:39:54;;;;;;;4.13;3.72;;;18.50;99.90;;;;;;5075779;28;20073;-72
2022/09/10 10:43:00;;;;;;;3.97;3.67;;;18.50;99.90;;;;;;5075872;28;20476;-72
2022/09/10 10:45:37;;;;;;;6.03;5.43;;;18.60;99.90;;;;;;5075604;28;20107;-72
2022/09/10 10:48:15;;;;;;;6.30;5.70;;;18.70;99.90;;;;;;5075134;28;20029;-72
2022/09/10 10:50:57;;;;;;;5.72;5.22;;;18.80;99.90;;;;;;5075433;28;20039;-72
2022/09/10 10:53:48;;;;;;;7.43;6.68;;;19.00;99.90;;;;;;5075313;28;20032;-72
2022/09/10 10:56:31;;;;;;;7.45;6.75;;;19.30;99.90;;;;;;5070442;28;20038;-72
2022/09/10 10:59:37;;;;;;;6.93;5.05;;;19.60;99.90;;;;;;5075336;28;20468;-72
2022/09/10 11:02:25;;;;;;;7.25;6.03;;;19.90;99.90;;;;;;5025610;28;20384;-73
2022/09/10 11:04:53;;;;;;;6.20;5.13;;;20.20;99.90;;;;;;5075187;28;20028;-72
2022/09/10 11:07:38;;;;;;;6.15;5.65;;;20.40;99.90;;;;;;5075226;28;20021;-72
2022/09/10 11:10:31;;;;;;;5.60;5.20;;;20.50;99.50;;;;;;5075014;28;20492;-73
2022/09/10 11:13:10;;;;;;;4.10;3.80;;;20.70;99.30;;;;;;5074616;28;20036;-73
2022/09/10 11:15:51;;;;;;;4.38;4.05;;;20.70;99.20;;;;;;5075171;28;20043;-73
2022/09/10 11:18:19;;;;;;;4.18;3.28;;;20.60;98.70;;;;;;5074762;28;20095;-73
2022/09/10 11:21:04;;;;;;;4.65;3.50;;;20.60;98.70;;;;;;5074894;28;20478;-73
2022/09/10 11:23:51;;;;;;;4.57;3.22;;;20.50;98.40;;;;;;5075078;28;20021;-73
2022/09/10 11:26:30;;;;;;;2.42;2.20;;;20.50;98.70;;;;;;5074608;28;20472;-73
2022/09/10 11:29:24;;;;;;;2.38;1.42;;;20.50;98.50;;;;;;5074496;28;20507;-73
2022/09/10 11:32:25;;;;;;;1.52;0.77;;;20.40;97.50;;;;;;5074740;28;20090;-73
2022/09/10 11:34:54;;;;;;;1.77;1.45;;;20.40;97.40;;;;;;5074540;28;20112;-73
2022/09/10 11:37:42;;;;;;;1.23;1.02;;;20.40;97.80;;;;;;5074186;28;20075;-73
2022/09/10 11:40:18;;;;;;;0.98;0.73;;;20.40;97.40;;;;;;5074647;28;20102;-73
2022/09/10 11:42:51;;;;;;;1.35;1.20;;;20.40;97.60;;;;;;5074631;28;20025;-73
2022/09/10 11:45:35;;;;;;;2.13;1.25;;;20.40;97.60;;;;;;5074502;28;20078;-73
2022/09/10 11:48:34;;;;;;;1.67;0.98;;;20.40;97.50;;;;;;5074147;28;20146;-73
2022/09/10 11:51:18;;;;;;;1.23;0.80;;;20.40;97.50;;;;;;5074031;28;20021;-73
2022/09/10 11:53:44;;;;;;;0.70;0.50;;;20.50;97.30;;;;;;5074165;28;20093;-74
2022/09/10 11:56:28;;;;;;;0.70;0.70;;;20.60;97.60;;;;;;5074407;28;20040;-74
2022/09/10 11:59:08;;;;;;;1.17;0.50;;;20.80;98.10;;;;;;5074190;28;20017;-74
2022/09/10 12:02:13;;;;;;;1.83;0.70;;;20.90;98.00;;;;;;5073744;28;20476;-74
2022/09/10 12:05:09;;;;;;;0.95;0.63;;;20.90;97.50;;;;;;5074025;28;20095;-74
2022/09/10 12:07:48;;;;;;;1.00;0.73;;;20.90;97.20;;;;;;5074006;28;20028;-74
2022/09/10 12:10:53;;;;;;;1.23;1.13;;;21.00;97.60;;;;;;5074081;28;20104;-74
2022/09/10 12:13:19;;;;;;;1.65;1.10;;;21.10;97.80;;;;;;5073940;28;20040;-72
2022/09/10 12:15:54;;;;;;;1.30;0.90;;;21.00;97.30;;;;;;5073539;28;20040;-73
2022/09/10 12:18:34;;;;;;;1.75;0.90;;;21.00;97.30;;;;;;5074129;28;20105;-72
2022/09/10 12:21:12;;;;;;;2.28;0.85;;;20.90;97.00;;;;;;5073566;28;20055;-72
2022/09/10 12:23:38;;;;;;;1.52;1.02;;;20.90;97.80;;;;;;5074032;28;20025;-72
2022/09/10 12:26:14;;;;;;;1.35;0.65;;;21.10;97.90;;;;;;5073328;28;20032;-72
2022/09/10 12:28:41;;;;;;;2.13;1.85;;;21.20;97.50;;;;;;5073502;28;20082;-72
2022/09/10 12:31:11;;;;;;;1.75;1.60;;;21.20;97.20;;;;;;5073428;28;20060;-72
2022/09/10 12:33:42;;;;;;;2.15;1.30;;;21.20;97.60;;;;;;5073603;28;20119;-73
2022/09/10 12:36:31;;;;;;;1.02;0.90;;;21.20;97.00;;;;;;5073159;28;20046;-73
2022/09/10 12:39:26;;;;;;;1.05;0.95;;;21.10;96.10;;;;;;5073170;28;20376;-72
2022/09/10 12:41:53;;;;;;;17.05;2.53;;;20.90;96.60;;;;;;5073222;28;20025;-73
2022/09/10 12:44:34;;;;;;;0.85;0.80;;;20.80;96.90;;;;;;5073237;28;20052;-73
2022/09/10 12:47:15;;;;;;;1.98;1.00;;;20.70;97.00;;;;;;5073227;28;20039;-73
2022/09/10 12:50:04;;;;;;;1.40;0.70;;;20.50;97.10;;;;;;5073670;28;20017;-73
2022/09/10 12:52:49;;;;;;;1.25;0.80;;;20.60;97.70;;;;;;5073603;28;20016;-73
2022/09/10 12:55:35;;;;;;;1.63;0.90;;;20.60;97.40;;;;;;5072747;28;20036;-73
2022/09/10 12:58:21;;;;;;;1.20;1.10;;;20.70;97.40;;;;;;5073024;28;20025;-72
2022/09/10 13:00:52;;;;;;;1.25;0.77;;;20.70;97.20;;;;;;5073138;28;20372;-72
2022/09/10 13:03:19;;;;;;;1.20;0.70;;;20.70;96.90;;;;;;5073297;28;20035;-72
2022/09/10 13:05:49;;;;;;;1.35;1.08;;;20.80;96.90;;;;;;5072565;28;20051;-73